KPHF/PHF METAR and TAF weather

Enter ICAO airport designator
Station Type Date Time Source
KPHF METAR 2021/01/27 13:54 UTC NOAA

KPHF 271354Z 35003KT 5SM BR OVC003 04/04 A3011 RMK AO2 CIG 002V008 SLP194 T00440039


Station Type Date Time Source
KPHF Decoded METAR 2021/01/27 13:54 UTC NOAA

WILLIAMSBURG INTERNATIONAL AIRPORT , VA, United States (KPHF) 37-08N 76-30W 12M
Jan 27, 2021 - 08:54 AM EST / 2021.01.27 1354 UTC
Wind: from the N (350 degrees) at 3 MPH (3 KT):0
Visibility: 5 mile(s):0
Sky conditions: overcast
Weather: mist
Temperature: 39.9 F (4.4 C)
Dew Point: 39.0 F (3.9 C)
Relative Humidity: 96%
Pressure (altimeter): 30.11 in. Hg (1019 hPa)
ob: KPHF 271354Z 35003KT 5SM BR OVC003 04/04 A3011 RMK AO2 CIG 002V008 SLP194 T00440039
cycle: 14

Station Type Date Time Source
KPHF TAF 2021/01/27 12:27 UTC NOAA

TAF KPHF 271124Z 2712/2812 35005KT 3SM BR OVC002
TEMPO 2712/2713 3/4SM BR
FM271400 35007KT P6SM OVC008
FM271600 36008KT P6SM OVC025
FM280700 36012KT 5SM -SN OVC020

Example: see airport list